Back to Top

Language: 

My Weather Underground Personal Weather Station Historical Data with Graphs...

Delerius Weather Station Historical Data
 
Daily Summary for February 24, 2018 Units:  Both    English   Metric
« Previous Day
Next Day »
Daily Weekly Monthly Yearly Custom
  Current: High: Low: Average:
Temperature: 35.4 °F /  1.9 °C 44.6 °F /  7 °C 32.5 °F /  0.3 °C 36.7 °F /  2.6 °C
Dew Point: 32.2 °F /  0.1 °C 32.3 °F /  0.2 °C 24.6 °F /  -4.1 °C 29.5 °F /  -1.4 °C
Humidity: 88 % 89 % 46 % 76 %
Wind Speed: 8.0 mph /  12.9 km/h 13.0 mph /  20.9 km/h - 6.7 mph /  10.8 km/h
Wind Gust: 12.0 mph /  19.3 km/h 25.0 mph /  40.2 km/h - -
Wind:ESE - - ESE
Pressure: 30.37 in /  1028.3 hPa 30.37 in /  1028.3 hPa 30.19 in /  1022.2 hPa -
Precipitation: 0.00 in /  0 mm      
Historical Graphs
 
 
Tabular Data for February 24, 2018
Time Temperature Dew Point Pressure Wind Wind Speed Wind Gust Humidity Rainfall Rate (Hourly) solar Conditions
00:00 34.2 °F /  1.2 °C 29.2 °F /  -1.6 °C 30.20 in /  1022.6 hPa ESE 6.0 mph /  9.7 km/h 8.0 mph /  12.9 km/h 82 % 0.00 in /  0 mm 0 W/m2
00:05 34.2 °F /  1.2 °C 29.2 °F /  -1.6 °C 30.20 in /  1022.6 hPa ESE 5.0 mph /  8 km/h 8.0 mph /  12.9 km/h 82 % 0.00 in /  0 mm 0 W/m2
00:10 34.2 °F /  1.2 °C 29.2 °F /  -1.6 °C 30.20 in /  1022.6 hPa ESE 2.0 mph /  3.2 km/h 5.0 mph /  8 km/h 82 % 0.00 in /  0 mm 0 W/m2
00:15 34.3 °F /  1.3 °C 29.4 °F /  -1.4 °C 30.20 in /  1022.6 hPa ESE 5.0 mph /  8 km/h 8.0 mph /  12.9 km/h 82 % 0.00 in /  0 mm 0 W/m2
00:20 34.2 °F /  1.2 °C 29.2 °F /  -1.6 °C 30.20 in /  1022.6 hPa ESE 4.0 mph /  6.4 km/h 8.0 mph /  12.9 km/h 82 % 0.00 in /  0 mm 0 W/m2
00:25 34.2 °F /  1.2 °C 29.2 °F /  -1.6 °C 30.20 in /  1022.6 hPa ESE 4.0 mph /  6.4 km/h 8.0 mph /  12.9 km/h 82 % 0.00 in /  0 mm 0 W/m2
00:30 34.2 °F /  1.2 °C 29.2 °F /  -1.6 °C 30.20 in /  1022.6 hPa ESE 4.0 mph /  6.4 km/h 7.0 mph /  11.3 km/h 82 % 0.00 in /  0 mm 0 W/m2
00:35 34.2 °F /  1.2 °C 29.2 °F /  -1.6 °C 30.20 in /  1022.6 hPa ESE 3.0 mph /  4.8 km/h 7.0 mph /  11.3 km/h 82 % 0.00 in /  0 mm 0 W/m2
00:40 34.2 °F /  1.2 °C 29.2 °F /  -1.6 °C 30.20 in /  1022.6 hPa ESE 3.0 mph /  4.8 km/h 6.0 mph /  9.7 km/h 82 % 0.00 in /  0 mm 0 W/m2
00:45 34.2 °F /  1.2 °C 29.2 °F /  -1.6 °C 30.20 in /  1022.6 hPa ESE 3.0 mph /  4.8 km/h 6.0 mph /  9.7 km/h 82 % 0.00 in /  0 mm 0 W/m2
00:50 34.2 °F /  1.2 °C 29.2 °F /  -1.6 °C 30.20 in /  1022.6 hPa ESE 5.0 mph /  8 km/h 9.0 mph /  14.5 km/h 82 % 0.00 in /  0 mm 0 W/m2
00:55 34.2 °F /  1.2 °C 29.2 °F /  -1.6 °C 30.20 in /  1022.6 hPa ESE 5.0 mph /  8 km/h 7.0 mph /  11.3 km/h 82 % 0.00 in /  0 mm 0 W/m2
01:00 34.2 °F /  1.2 °C 29.2 °F /  -1.6 °C 30.20 in /  1022.6 hPa ESE 5.0 mph /  8 km/h 8.0 mph /  12.9 km/h 82 % 0.00 in /  0 mm 0 W/m2
01:05 34.2 °F /  1.2 °C 29.2 °F /  -1.6 °C 30.20 in /  1022.6 hPa ESE 3.0 mph /  4.8 km/h 6.0 mph /  9.7 km/h 82 % 0.00 in /  0 mm 0 W/m2
01:10 34.3 °F /  1.3 °C 29.4 °F /  -1.4 °C 30.20 in /  1022.6 hPa ESE 3.0 mph /  4.8 km/h 5.0 mph /  8 km/h 82 % 0.00 in /  0 mm 0 W/m2
01:15 34.3 °F /  1.3 °C 29.4 °F /  -1.4 °C 30.20 in /  1022.6 hPa East 4.0 mph /  6.4 km/h 7.0 mph /  11.3 km/h 82 % 0.00 in /  0 mm 0 W/m2
01:20 34.2 °F /  1.2 °C 29.2 °F /  -1.6 °C 30.20 in /  1022.6 hPa ESE 4.0 mph /  6.4 km/h 7.0 mph /  11.3 km/h 82 % 0.00 in /  0 mm 0 W/m2
01:25 34.2 °F /  1.2 °C 29.5 °F /  -1.4 °C 30.20 in /  1022.6 hPa ESE 2.0 mph /  3.2 km/h 5.0 mph /  8 km/h 83 % 0.00 in /  0 mm 0 W/m2
01:30 34.2 °F /  1.2 °C 29.5 °F /  -1.4 °C 30.21 in /  1022.9 hPa ESE 5.0 mph /  8 km/h 7.0 mph /  11.3 km/h 83 % 0.00 in /  0 mm 0 W/m2
01:35 34.2 °F /  1.2 °C 29.5 °F /  -1.4 °C 30.21 in /  1022.9 hPa ESE 3.0 mph /  4.8 km/h 5.0 mph /  8 km/h 83 % 0.00 in /  0 mm 0 W/m2
01:40 34.2 °F /  1.2 °C 29.5 °F /  -1.4 °C 30.21 in /  1022.9 hPa ESE 5.0 mph /  8 km/h 8.0 mph /  12.9 km/h 83 % 0.00 in /  0 mm 0 W/m2
01:45 34.2 °F /  1.2 °C 29.5 °F /  -1.4 °C 30.21 in /  1022.9 hPa ESE 5.0 mph /  8 km/h 7.0 mph /  11.3 km/h 83 % 0.00 in /  0 mm 0 W/m2
01:51 34.2 °F /  1.2 °C 29.5 °F /  -1.4 °C 30.21 in /  1022.9 hPa ESE 4.0 mph /  6.4 km/h 7.0 mph /  11.3 km/h 83 % 0.00 in /  0 mm 0 W/m2
01:55 34.2 °F /  1.2 °C 29.5 °F /  -1.4 °C 30.20 in /  1022.6 hPa ESE 5.0 mph /  8 km/h 7.0 mph /  11.3 km/h 83 % 0.00 in /  0 mm 0 W/m2
02:00 34.2 °F /  1.2 °C 29.5 °F /  -1.4 °C 30.20 in /  1022.6 hPa SE 4.0 mph /  6.4 km/h 8.0 mph /  12.9 km/h 83 % 0.00 in /  0 mm 0 W/m2
02:06 34.2 °F /  1.2 °C 29.5 °F /  -1.4 °C 30.20 in /  1022.6 hPa ESE 6.0 mph /  9.7 km/h 8.0 mph /  12.9 km/h 83 % 0.00 in /  0 mm 0 W/m2
02:11 34.2 °F /  1.2 °C 29.5 °F /  -1.4 °C 30.20 in /  1022.6 hPa ESE 4.0 mph /  6.4 km/h 7.0 mph /  11.3 km/h 83 % 0.00 in /  0 mm 0 W/m2
02:16 34.2 °F /  1.2 °C 29.5 °F /  -1.4 °C 30.20 in /  1022.6 hPa ESE 4.0 mph /  6.4 km/h 7.0 mph /  11.3 km/h 83 % 0.00 in /  0 mm 0 W/m2
02:21 34.2 °F /  1.2 °C 29.2 °F /  -1.6 °C 30.20 in /  1022.6 hPa ESE 8.0 mph /  12.9 km/h 12.0 mph /  19.3 km/h 82 % 0.00 in /  0 mm 0 W/m2
02:26 34.2 °F /  1.2 °C 29.2 °F /  -1.6 °C 30.20 in /  1022.6 hPa SE 4.0 mph /  6.4 km/h 8.0 mph /  12.9 km/h 82 % 0.00 in /  0 mm 0 W/m2
02:31 34.0 °F /  1.1 °C 29.1 °F /  -1.6 °C 30.20 in /  1022.6 hPa SE 6.0 mph /  9.7 km/h 11.0 mph /  17.7 km/h 82 % 0.00 in /  0 mm 0 W/m2
02:36 34.0 °F /  1.1 °C 28.8 °F /  -1.8 °C 30.20 in /  1022.6 hPa SE 6.0 mph /  9.7 km/h 9.0 mph /  14.5 km/h 81 % 0.00 in /  0 mm 0 W/m2
02:41 34.0 °F /  1.1 °C 28.8 °F /  -1.8 °C 30.19 in /  1022.2 hPa ESE 6.0 mph /  9.7 km/h 9.0 mph /  14.5 km/h 81 % 0.00 in /  0 mm 0 W/m2
02:46 34.0 °F /  1.1 °C 28.8 °F /  -1.8 °C 30.19 in /  1022.2 hPa SE 5.0 mph /  8 km/h 9.0 mph /  14.5 km/h 81 % 0.00 in /  0 mm 0 W/m2
02:51 34.0 °F /  1.1 °C 28.8 °F /  -1.8 °C 30.19 in /  1022.2 hPa ESE 5.0 mph /  8 km/h 6.0 mph /  9.7 km/h 81 % 0.00 in /  0 mm 0 W/m2
02:56 34.0 °F /  1.1 °C 28.8 °F /  -1.8 °C 30.19 in /  1022.2 hPa SE 5.0 mph /  8 km/h 9.0 mph /  14.5 km/h 81 % 0.00 in /  0 mm 0 W/m2
03:01 34.0 °F /  1.1 °C 28.8 °F /  -1.8 °C 30.19 in /  1022.2 hPa SE 5.0 mph /  8 km/h 8.0 mph /  12.9 km/h 81 % 0.00 in /  0 mm 0 W/m2
03:06 33.8 °F /  1 °C 28.6 °F /  -1.9 °C 30.20 in /  1022.6 hPa ESE 6.0 mph /  9.7 km/h 10.0 mph /  16.1 km/h 81 % 0.00 in /  0 mm 0 W/m2
03:11 33.8 °F /  1 °C 28.6 °F /  -1.9 °C 30.20 in /  1022.6 hPa SE 5.0 mph /  8 km/h 9.0 mph /  14.5 km/h 81 % 0.00 in /  0 mm 0 W/m2
03:16 33.8 °F /  1 °C 28.6 °F /  -1.9 °C 30.19 in /  1022.2 hPa ESE 6.0 mph /  9.7 km/h 10.0 mph /  16.1 km/h 81 % 0.00 in /  0 mm 0 W/m2
03:21 33.8 °F /  1 °C 28.6 °F /  -1.9 °C 30.20 in /  1022.6 hPa ESE 4.0 mph /  6.4 km/h 7.0 mph /  11.3 km/h 81 % 0.00 in /  0 mm 0 W/m2
03:26 33.8 °F /  1 °C 28.6 °F /  -1.9 °C 30.20 in /  1022.6 hPa SE 6.0 mph /  9.7 km/h 10.0 mph /  16.1 km/h 81 % 0.00 in /  0 mm 0 W/m2
03:31 33.8 °F /  1 °C 28.3 °F /  -2.1 °C 30.20 in /  1022.6 hPa ESE 4.0 mph /  6.4 km/h 7.0 mph /  11.3 km/h 80 % 0.00 in /  0 mm 0 W/m2
03:36 33.8 °F /  1 °C 28.6 °F /  -1.9 °C 30.19 in /  1022.2 hPa ESE 4.0 mph /  6.4 km/h 9.0 mph /  14.5 km/h 81 % 0.00 in /  0 mm 0 W/m2
03:41 33.8 °F /  1 °C 28.6 °F /  -1.9 °C 30.20 in /  1022.6 hPa ESE 6.0 mph /  9.7 km/h 9.0 mph /  14.5 km/h 81 % 0.00 in /  0 mm 0 W/m2
03:46 33.8 °F /  1 °C 28.6 °F /  -1.9 °C 30.20 in /  1022.6 hPa ESE 6.0 mph /  9.7 km/h 8.0 mph /  12.9 km/h 81 % 0.00 in /  0 mm 0 W/m2
03:51 33.8 °F /  1 °C 28.6 °F /  -1.9 °C 30.20 in /  1022.6 hPa ESE 5.0 mph /  8 km/h 9.0 mph /  14.5 km/h 81 % 0.00 in /  0 mm 0 W/m2
03:56 33.8 °F /  1 °C 28.6 °F /  -1.9 °C 30.20 in /  1022.6 hPa SE 4.0 mph /  6.4 km/h 8.0 mph /  12.9 km/h 81 % 0.00 in /  0 mm 0 W/m2
04:01 33.8 °F /  1 °C 28.6 °F /  -1.9 °C 30.20 in /  1022.6 hPa SE 4.0 mph /  6.4 km/h 7.0 mph /  11.3 km/h 81 % 0.00 in /  0 mm 0 W/m2
04:06 33.6 °F /  0.9 °C 28.4 °F /  -2 °C 30.20 in /  1022.6 hPa ESE 7.0 mph /  11.3 km/h 10.0 mph /  16.1 km/h 81 % 0.00 in /  0 mm 0 W/m2
04:11 33.8 °F /  1 °C 28.6 °F /  -1.9 °C 30.20 in /  1022.6 hPa ESE 6.0 mph /  9.7 km/h 9.0 mph /  14.5 km/h 81 % 0.00 in /  0 mm 0 W/m2
04:16 33.8 °F /  1 °C 28.6 °F /  -1.9 °C 30.20 in /  1022.6 hPa SE 8.0 mph /  12.9 km/h 12.0 mph /  19.3 km/h 81 % 0.00 in /  0 mm 0 W/m2
04:21 33.8 °F /  1 °C 28.6 °F /  -1.9 °C 30.20 in /  1022.6 hPa ESE 6.0 mph /  9.7 km/h 10.0 mph /  16.1 km/h 81 % 0.00 in /  0 mm 0 W/m2
04:26 34.0 °F /  1.1 °C 28.8 °F /  -1.8 °C 30.20 in /  1022.6 hPa ESE 6.0 mph /  9.7 km/h 9.0 mph /  14.5 km/h 81 % 0.00 in /  0 mm 0 W/m2
04:31 33.8 °F /  1 °C 28.6 °F /  -1.9 °C 30.20 in /  1022.6 hPa ESE 5.0 mph /  8 km/h 10.0 mph /  16.1 km/h 81 % 0.00 in /  0 mm 0 W/m2
04:36 33.8 °F /  1 °C 28.6 °F /  -1.9 °C 30.20 in /  1022.6 hPa ESE 5.0 mph /  8 km/h 8.0 mph /  12.9 km/h 81 % 0.00 in /  0 mm 0 W/m2
04:41 33.8 °F /  1 °C 28.6 °F /  -1.9 °C 30.21 in /  1022.9 hPa ESE 5.0 mph /  8 km/h 8.0 mph /  12.9 km/h 81 % 0.00 in /  0 mm 0 W/m2
04:46 33.8 °F /  1 °C 28.6 °F /  -1.9 °C 30.20 in /  1022.6 hPa SE 4.0 mph /  6.4 km/h 9.0 mph /  14.5 km/h 81 % 0.00 in /  0 mm 0 W/m2
04:51 33.8 °F /  1 °C 28.6 °F /  -1.9 °C 30.21 in /  1022.9 hPa ESE 5.0 mph /  8 km/h 9.0 mph /  14.5 km/h 81 % 0.00 in /  0 mm 0 W/m2
04:56 33.6 °F /  0.9 °C 28.4 °F /  -2 °C 30.21 in /  1022.9 hPa ESE 4.0 mph /  6.4 km/h 7.0 mph /  11.3 km/h 81 % 0.00 in /  0 mm 0 W/m2
05:01 33.6 °F /  0.9 °C 28.4 °F /  -2 °C 30.21 in /  1022.9 hPa ESE 6.0 mph /  9.7 km/h 9.0 mph /  14.5 km/h 81 % 0.00 in /  0 mm 0 W/m2
05:06 33.6 °F /  0.9 °C 28.4 °F /  -2 °C 30.21 in /  1022.9 hPa ESE 7.0 mph /  11.3 km/h 10.0 mph /  16.1 km/h 81 % 0.00 in /  0 mm 0 W/m2
05:11 33.6 °F /  0.9 °C 28.1 °F /  -2.2 °C 30.21 in /  1022.9 hPa SE 8.0 mph /  12.9 km/h 14.0 mph /  22.5 km/h 80 % 0.00 in /  0 mm 0 W/m2
05:16 33.6 °F /  0.9 °C 28.1 °F /  -2.2 °C 30.21 in /  1022.9 hPa ESE 9.0 mph /  14.5 km/h 14.0 mph /  22.5 km/h 80 % 0.00 in /  0 mm 0 W/m2
05:21 33.6 °F /  0.9 °C 28.1 °F /  -2.2 °C 30.21 in /  1022.9 hPa ESE 8.0 mph /  12.9 km/h 13.0 mph /  20.9 km/h 80 % 0.00 in /  0 mm 0 W/m2
05:26 33.6 °F /  0.9 °C 28.1 °F /  -2.2 °C 30.21 in /  1022.9 hPa ESE 8.0 mph /  12.9 km/h 12.0 mph /  19.3 km/h 80 % 0.00 in /  0 mm 0 W/m2
05:31 33.6 °F /  0.9 °C 28.1 °F /  -2.2 °C 30.22 in /  1023.2 hPa ESE 8.0 mph /  12.9 km/h 13.0 mph /  20.9 km/h 80 % 0.00 in /  0 mm 0 W/m2
05:36 33.6 °F /  0.9 °C 28.1 °F /  -2.2 °C 30.22 in /  1023.2 hPa ESE 5.0 mph /  8 km/h 9.0 mph /  14.5 km/h 80 % 0.00 in /  0 mm 0 W/m2
05:41 33.4 °F /  0.8 °C 27.9 °F /  -2.3 °C 30.22 in /  1023.2 hPa ESE 6.0 mph /  9.7 km/h 8.0 mph /  12.9 km/h 80 % 0.00 in /  0 mm 0 W/m2
05:46 33.4 °F /  0.8 °C 28.2 °F /  -2.1 °C 30.22 in /  1023.2 hPa ESE 5.0 mph /  8 km/h 9.0 mph /  14.5 km/h 81 % 0.00 in /  0 mm 0 W/m2
05:51 33.4 °F /  0.8 °C 28.2 °F /  -2.1 °C 30.22 in /  1023.2 hPa ESE 5.0 mph /  8 km/h 9.0 mph /  14.5 km/h 81 % 0.00 in /  0 mm 0 W/m2
05:56 33.4 °F /  0.8 °C 28.2 °F /  -2.1 °C 30.21 in /  1022.9 hPa ESE 5.0 mph /  8 km/h 8.0 mph /  12.9 km/h 81 % 0.00 in /  0 mm 0 W/m2
06:01 33.3 °F /  0.7 °C 28.1 °F /  -2.2 °C 30.22 in /  1023.2 hPa ESE 4.0 mph /  6.4 km/h 8.0 mph /  12.9 km/h 81 % 0.00 in /  0 mm 0 W/m2
06:06 33.3 °F /  0.7 °C 28.1 °F /  -2.2 °C 30.22 in /  1023.2 hPa ESE 6.0 mph /  9.7 km/h 9.0 mph /  14.5 km/h 81 % 0.00 in /  0 mm 0 W/m2
06:11 33.3 °F /  0.7 °C 28.4 °F /  -2 °C 30.22 in /  1023.2 hPa ESE 6.0 mph /  9.7 km/h 9.0 mph /  14.5 km/h 82 % 0.00 in /  0 mm 0 W/m2
06:16 33.3 °F /  0.7 °C 28.4 °F /  -2 °C 30.22 in /  1023.2 hPa ESE 5.0 mph /  8 km/h 8.0 mph /  12.9 km/h 82 % 0.00 in /  0 mm 0 W/m2
06:21 33.3 °F /  0.7 °C 28.4 °F /  -2 °C 30.22 in /  1023.2 hPa ESE 7.0 mph /  11.3 km/h 11.0 mph /  17.7 km/h 82 % 0.00 in /  0 mm 0 W/m2
06:26 33.3 °F /  0.7 °C 28.4 °F /  -2 °C 30.22 in /  1023.2 hPa ESE 5.0 mph /  8 km/h 7.0 mph /  11.3 km/h 82 % 0.00 in /  0 mm 0 W/m2
06:31 33.3 °F /  0.7 °C 28.4 °F /  -2 °C 30.22 in /  1023.2 hPa ESE 6.0 mph /  9.7 km/h 10.0 mph /  16.1 km/h 82 % 0.00 in /  0 mm 0 W/m2
06:36 33.1 °F /  0.6 °C 28.2 °F /  -2.1 °C 30.22 in /  1023.2 hPa ESE 6.0 mph /  9.7 km/h 9.0 mph /  14.5 km/h 82 % 0.00 in /  0 mm 0 W/m2
06:41 33.1 °F /  0.6 °C 28.2 °F /  -2.1 °C 30.23 in /  1023.6 hPa ESE 5.0 mph /  8 km/h 8.0 mph /  12.9 km/h 82 % 0.00 in /  0 mm 0 W/m2
06:46 33.1 °F /  0.6 °C 28.2 °F /  -2.1 °C 30.23 in /  1023.6 hPa ESE 5.0 mph /  8 km/h 7.0 mph /  11.3 km/h 82 % 0.00 in /  0 mm 0 W/m2
06:51 32.9 °F /  0.5 °C 28.0 °F /  -2.2 °C 30.23 in /  1023.6 hPa ESE 6.0 mph /  9.7 km/h 9.0 mph /  14.5 km/h 82 % 0.00 in /  0 mm 0 W/m2
06:56 32.9 °F /  0.5 °C 28.3 °F /  -2.1 °C 30.23 in /  1023.6 hPa ESE 6.0 mph /  9.7 km/h 9.0 mph /  14.5 km/h 83 % 0.00 in /  0 mm 0 W/m2
07:01 32.7 °F /  0.4 °C 28.1 °F /  -2.2 °C 30.23 in /  1023.6 hPa ESE 5.0 mph /  8 km/h 7.0 mph /  11.3 km/h 83 % 0.00 in /  0 mm 0 W/m2
07:06 32.7 °F /  0.4 °C 28.1 °F /  -2.2 °C 30.23 in /  1023.6 hPa ESE 6.0 mph /  9.7 km/h 10.0 mph /  16.1 km/h 83 % 0.00 in /  0 mm 5 W/m2
07:12 32.7 °F /  0.4 °C 28.1 °F /  -2.2 °C 30.24 in /  1023.9 hPa ESE 6.0 mph /  9.7 km/h 8.0 mph /  12.9 km/h 83 % 0.00 in /  0 mm 7 W/m2
07:16 32.5 °F /  0.3 °C 28.0 °F /  -2.2 °C 30.24 in /  1023.9 hPa ESE 6.0 mph /  9.7 km/h 9.0 mph /  14.5 km/h 83 % 0.00 in /  0 mm 9 W/m2
07:22 32.5 °F /  0.3 °C 28.0 °F /  -2.2 °C 30.24 in /  1023.9 hPa ESE 6.0 mph /  9.7 km/h 9.0 mph /  14.5 km/h 83 % 0.00 in /  0 mm 12 W/m2
07:27 32.5 °F /  0.3 °C 28.0 °F /  -2.2 °C 30.24 in /  1023.9 hPa ESE 4.0 mph /  6.4 km/h 7.0 mph /  11.3 km/h 83 % 0.00 in /  0 mm 18 W/m2
07:32 32.5 °F /  0.3 °C 28.0 °F /  -2.2 °C 30.24 in /  1023.9 hPa SE 4.0 mph /  6.4 km/h 6.0 mph /  9.7 km/h 83 % 0.00 in /  0 mm 23 W/m2
07:37 32.5 °F /  0.3 °C 28.2 °F /  -2.1 °C 30.25 in /  1024.3 hPa ESE 4.0 mph /  6.4 km/h 6.0 mph /  9.7 km/h 84 % 0.00 in /  0 mm 26 W/m2
07:42 32.5 °F /  0.3 °C 28.2 °F /  -2.1 °C 30.25 in /  1024.3 hPa ESE 3.0 mph /  4.8 km/h 7.0 mph /  11.3 km/h 84 % 0.00 in /  0 mm 32 W/m2
07:47 32.5 °F /  0.3 °C 28.2 °F /  -2.1 °C 30.25 in /  1024.3 hPa ESE 4.0 mph /  6.4 km/h 7.0 mph /  11.3 km/h 84 % 0.00 in /  0 mm 32 W/m2
07:52 32.7 °F /  0.4 °C 28.4 °F /  -2 °C 30.25 in /  1024.3 hPa ESE 4.0 mph /  6.4 km/h 7.0 mph /  11.3 km/h 84 % 0.00 in /  0 mm 37 W/m2
07:57 32.7 °F /  0.4 °C 28.4 °F /  -2 °C 30.25 in /  1024.3 hPa ESE 5.0 mph /  8 km/h 11.0 mph /  17.7 km/h 84 % 0.00 in /  0 mm 42 W/m2
08:02 32.7 °F /  0.4 °C 28.4 °F /  -2 °C 30.25 in /  1024.3 hPa ESE 5.0 mph /  8 km/h 8.0 mph /  12.9 km/h 84 % 0.00 in /  0 mm 30 W/m2
08:07 32.7 °F /  0.4 °C 28.4 °F /  -2 °C 30.25 in /  1024.3 hPa ESE 4.0 mph /  6.4 km/h 6.0 mph /  9.7 km/h 84 % 0.00 in /  0 mm 35 W/m2
08:12 32.7 °F /  0.4 °C 28.4 °F /  -2 °C 30.25 in /  1024.3 hPa ESE 5.0 mph /  8 km/h 6.0 mph /  9.7 km/h 84 % 0.00 in /  0 mm 46 W/m2
08:17 32.7 °F /  0.4 °C 28.7 °F /  -1.8 °C 30.26 in /  1024.6 hPa ESE 4.0 mph /  6.4 km/h 7.0 mph /  11.3 km/h 85 % 0.00 in /  0 mm 44 W/m2
08:22 32.9 °F /  0.5 °C 28.9 °F /  -1.7 °C 30.26 in /  1024.6 hPa ESE 4.0 mph /  6.4 km/h 6.0 mph /  9.7 km/h 85 % 0.00 in /  0 mm 54 W/m2
08:27 32.9 °F /  0.5 °C 28.9 °F /  -1.7 °C 30.26 in /  1024.6 hPa East 3.0 mph /  4.8 km/h 5.0 mph /  8 km/h 85 % 0.00 in /  0 mm 76 W/m2
08:32 33.1 °F /  0.6 °C 29.1 °F /  -1.6 °C 30.26 in /  1024.6 hPa East 4.0 mph /  6.4 km/h 5.0 mph /  8 km/h 85 % 0.00 in /  0 mm 88 W/m2
08:37 33.3 °F /  0.7 °C 29.2 °F /  -1.6 °C 30.26 in /  1024.6 hPa East 1.0 mph /  1.6 km/h 5.0 mph /  8 km/h 85 % 0.00 in /  0 mm 105 W/m2
08:42 33.4 °F /  0.8 °C 29.4 °F /  -1.4 °C 30.26 in /  1024.6 hPa East 2.0 mph /  3.2 km/h 5.0 mph /  8 km/h 85 % 0.00 in /  0 mm 128 W/m2
08:47 33.6 °F /  0.9 °C 29.6 °F /  -1.3 °C 30.27 in /  1024.9 hPa East 3.0 mph /  4.8 km/h 6.0 mph /  9.7 km/h 85 % 0.00 in /  0 mm 130 W/m2
08:52 34.0 °F /  1.1 °C 29.9 °F /  -1.2 °C 30.27 in /  1024.9 hPa East 4.0 mph /  6.4 km/h 7.0 mph /  11.3 km/h 85 % 0.00 in /  0 mm 127 W/m2
08:57 34.2 °F /  1.2 °C 29.8 °F /  -1.2 °C 30.27 in /  1024.9 hPa ESE 5.0 mph /  8 km/h 8.0 mph /  12.9 km/h 84 % 0.00 in /  0 mm 113 W/m2
09:03 34.2 °F /  1.2 °C 29.8 °F /  -1.2 °C 30.27 in /  1024.9 hPa East 3.0 mph /  4.8 km/h 5.0 mph /  8 km/h 84 % 0.00 in /  0 mm 125 W/m2
09:09 34.2 °F /  1.2 °C 29.8 °F /  -1.2 °C 30.27 in /  1024.9 hPa ESE 3.0 mph /  4.8 km/h 5.0 mph /  8 km/h 84 % 0.00 in /  0 mm 125 W/m2
09:14 34.3 °F /  1.3 °C 30.0 °F /  -1.1 °C 30.27 in /  1024.9 hPa ESE 6.0 mph /  9.7 km/h 8.0 mph /  12.9 km/h 84 % 0.00 in /  0 mm 151 W/m2
09:19 34.5 °F /  1.4 °C 30.5 °F /  -0.8 °C 30.27 in /  1024.9 hPa ESE 3.0 mph /  4.8 km/h 6.0 mph /  9.7 km/h 85 % 0.00 in /  0 mm 144 W/m2
09:24 34.9 °F /  1.6 °C 30.5 °F /  -0.8 °C 30.27 in /  1024.9 hPa ESE 4.0 mph /  6.4 km/h 8.0 mph /  12.9 km/h 84 % 0.00 in /  0 mm 188 W/m2
09:29 35.1 °F /  1.7 °C 30.7 °F /  -0.7 °C 30.28 in /  1025.3 hPa ESE 4.0 mph /  6.4 km/h 7.0 mph /  11.3 km/h 84 % 0.00 in /  0 mm 209 W/m2
09:34 35.4 °F /  1.9 °C 30.8 °F /  -0.7 °C 30.27 in /  1024.9 hPa ESE 6.0 mph /  9.7 km/h 10.0 mph /  16.1 km/h 83 % 0.00 in /  0 mm 220 W/m2
09:39 35.8 °F /  2.1 °C 31.1 °F /  -0.5 °C 30.27 in /  1024.9 hPa ESE 4.0 mph /  6.4 km/h 7.0 mph /  11.3 km/h 83 % 0.00 in /  0 mm 250 W/m2
09:44 36.1 °F /  2.3 °C 31.2 °F /  -0.4 °C 30.27 in /  1024.9 hPa East 4.0 mph /  6.4 km/h 9.0 mph /  14.5 km/h 82 % 0.00 in /  0 mm 237 W/m2
09:49 36.3 °F /  2.4 °C 31.0 °F /  -0.6 °C 30.28 in /  1025.3 hPa ESE 7.0 mph /  11.3 km/h 12.0 mph /  19.3 km/h 81 % 0.00 in /  0 mm 380 W/m2
09:54 36.7 °F /  2.6 °C 31.1 °F /  -0.5 °C 30.28 in /  1025.3 hPa ESE 8.0 mph /  12.9 km/h 13.0 mph /  20.9 km/h 80 % 0.00 in /  0 mm 271 W/m2
09:59 36.9 °F /  2.7 °C 31.3 °F /  -0.4 °C 30.28 in /  1025.3 hPa ESE 8.0 mph /  12.9 km/h 12.0 mph /  19.3 km/h 80 % 0.00 in /  0 mm 311 W/m2
10:04 37.0 °F /  2.8 °C 31.1 °F /  -0.5 °C 30.28 in /  1025.3 hPa ESE 6.0 mph /  9.7 km/h 9.0 mph /  14.5 km/h 79 % 0.00 in /  0 mm 381 W/m2
10:09 37.6 °F /  3.1 °C 31.7 °F /  -0.2 °C 30.28 in /  1025.3 hPa East 7.0 mph /  11.3 km/h 11.0 mph /  17.7 km/h 79 % 0.00 in /  0 mm 396 W/m2
10:14 37.8 °F /  3.2 °C 31.5 °F /  -0.3 °C 30.28 in /  1025.3 hPa ESE 7.0 mph /  11.3 km/h 12.0 mph /  19.3 km/h 78 % 0.00 in /  0 mm 142 W/m2
10:19 37.8 °F /  3.2 °C 31.2 °F /  -0.4 °C 30.28 in /  1025.3 hPa ESE 9.0 mph /  14.5 km/h 13.0 mph /  20.9 km/h 77 % 0.00 in /  0 mm 272 W/m2
10:24 37.4 °F /  3 °C 30.8 °F /  -0.7 °C 30.28 in /  1025.3 hPa ESE 8.0 mph /  12.9 km/h 15.0 mph /  24.1 km/h 77 % 0.00 in /  0 mm 422 W/m2
10:29 37.6 °F /  3.1 °C 31.3 °F /  -0.4 °C 30.28 in /  1025.3 hPa ESE 7.0 mph /  11.3 km/h 11.0 mph /  17.7 km/h 78 % 0.00 in /  0 mm 316 W/m2
10:34 37.8 °F /  3.2 °C 31.2 °F /  -0.4 °C 30.28 in /  1025.3 hPa ESE 10.0 mph /  16.1 km/h 16.0 mph /  25.7 km/h 77 % 0.00 in /  0 mm 399 W/m2
10:39 37.9 °F /  3.3 °C 31.4 °F /  -0.3 °C 30.28 in /  1025.3 hPa ESE 8.0 mph /  12.9 km/h 13.0 mph /  20.9 km/h 77 % 0.00 in /  0 mm 397 W/m2
10:45 38.5 °F /  3.6 °C 31.9 °F /  -0.1 °C 30.28 in /  1025.3 hPa ESE 7.0 mph /  11.3 km/h 13.0 mph /  20.9 km/h 77 % 0.00 in /  0 mm 534 W/m2
10:49 38.7 °F /  3.7 °C 31.7 °F /  -0.2 °C 30.28 in /  1025.3 hPa ESE 9.0 mph /  14.5 km/h 16.0 mph /  25.7 km/h 76 % 0.00 in /  0 mm 513 W/m2
10:55 39.0 °F /  3.9 °C 31.4 °F /  -0.3 °C 30.28 in /  1025.3 hPa ESE 8.0 mph /  12.9 km/h 14.0 mph /  22.5 km/h 74 % 0.00 in /  0 mm 485 W/m2
11:00 39.4 °F /  4.1 °C 31.4 °F /  -0.3 °C 30.28 in /  1025.3 hPa ESE 9.0 mph /  14.5 km/h 14.0 mph /  22.5 km/h 73 % 0.00 in /  0 mm 473 W/m2
11:05 39.4 °F /  4.1 °C 31.4 °F /  -0.3 °C 30.28 in /  1025.3 hPa ESE 9.0 mph /  14.5 km/h 16.0 mph /  25.7 km/h 73 % 0.00 in /  0 mm 503 W/m2
11:10 39.0 °F /  3.9 °C 30.4 °F /  -0.9 °C 30.28 in /  1025.3 hPa ESE 11.0 mph /  17.7 km/h 18.0 mph /  29 km/h 71 % 0.00 in /  0 mm 466 W/m2
11:15 38.7 °F /  3.7 °C 30.1 °F /  -1.1 °C 30.28 in /  1025.3 hPa ESE 12.0 mph /  19.3 km/h 18.0 mph /  29 km/h 71 % 0.00 in /  0 mm 411 W/m2
11:20 38.5 °F /  3.6 °C 29.9 °F /  -1.2 °C 30.28 in /  1025.3 hPa ESE 13.0 mph /  20.9 km/h 19.0 mph /  30.6 km/h 71 % 0.00 in /  0 mm 378 W/m2
11:25 38.7 °F /  3.7 °C 30.4 °F /  -0.9 °C 30.28 in /  1025.3 hPa SE 10.0 mph /  16.1 km/h 18.0 mph /  29 km/h 72 % 0.00 in /  0 mm 371 W/m2
11:30 38.8 °F /  3.8 °C 30.2 °F /  -1 °C 30.28 in /  1025.3 hPa ESE 10.0 mph /  16.1 km/h 15.0 mph /  24.1 km/h 71 % 0.00 in /  0 mm 424 W/m2
11:35 39.2 °F /  4 °C 29.9 °F /  -1.2 °C 30.28 in /  1025.3 hPa ESE 11.0 mph /  17.7 km/h 18.0 mph /  29 km/h 69 % 0.00 in /  0 mm 457 W/m2
11:40 39.4 °F /  4.1 °C 30.1 °F /  -1.1 °C 30.28 in /  1025.3 hPa ESE 11.0 mph /  17.7 km/h 18.0 mph /  29 km/h 69 % 0.00 in /  0 mm 492 W/m2
11:45 39.7 °F /  4.3 °C 30.0 °F /  -1.1 °C 30.28 in /  1025.3 hPa ESE 10.0 mph /  16.1 km/h 15.0 mph /  24.1 km/h 68 % 0.00 in /  0 mm 515 W/m2
11:50 40.1 °F /  4.5 °C 30.0 °F /  -1.1 °C 30.28 in /  1025.3 hPa ESE 10.0 mph /  16.1 km/h 20.0 mph /  32.2 km/h 67 % 0.00 in /  0 mm 512 W/m2
11:55 40.5 °F /  4.7 °C 30.0 °F /  -1.1 °C 30.28 in /  1025.3 hPa ESE 10.0 mph /  16.1 km/h 14.0 mph /  22.5 km/h 66 % 0.00 in /  0 mm 515 W/m2
12:00 40.6 °F /  4.8 °C 29.8 °F /  -1.2 °C 30.28 in /  1025.3 hPa ESE 11.0 mph /  17.7 km/h 18.0 mph /  29 km/h 65 % 0.00 in /  0 mm 520 W/m2
12:05 40.8 °F /  4.9 °C 30.0 °F /  -1.1 °C 30.28 in /  1025.3 hPa ESE 9.0 mph /  14.5 km/h 13.0 mph /  20.9 km/h 65 % 0.00 in /  0 mm 480 W/m2
12:10 41.0 °F /  5 °C 30.1 °F /  -1.1 °C 30.28 in /  1025.3 hPa SE 11.0 mph /  17.7 km/h 16.0 mph /  25.7 km/h 65 % 0.00 in /  0 mm 404 W/m2
12:15 41.0 °F /  5 °C 30.5 °F /  -0.8 °C 30.28 in /  1025.3 hPa ESE 8.0 mph /  12.9 km/h 12.0 mph /  19.3 km/h 66 % 0.00 in /  0 mm 490 W/m2
12:20 41.0 °F /  5 °C 30.5 °F /  -0.8 °C 30.28 in /  1025.3 hPa ESE 11.0 mph /  17.7 km/h 16.0 mph /  25.7 km/h 66 % 0.00 in /  0 mm 359 W/m2
12:25 41.0 °F /  5 °C 29.7 °F /  -1.3 °C 30.28 in /  1025.3 hPa ESE 8.0 mph /  12.9 km/h 14.0 mph /  22.5 km/h 64 % 0.00 in /  0 mm 374 W/m2
12:30 41.2 °F /  5.1 °C 30.7 °F /  -0.7 °C 30.28 in /  1025.3 hPa ESE 8.0 mph /  12.9 km/h 13.0 mph /  20.9 km/h 66 % 0.00 in /  0 mm 396 W/m2
12:35 41.5 °F /  5.3 °C 30.6 °F /  -0.8 °C 30.27 in /  1024.9 hPa East 9.0 mph /  14.5 km/h 15.0 mph /  24.1 km/h 65 % 0.00 in /  0 mm 469 W/m2
12:40 41.5 °F /  5.3 °C 30.6 °F /  -0.8 °C 30.27 in /  1024.9 hPa ESE 8.0 mph /  12.9 km/h 12.0 mph /  19.3 km/h 65 % 0.00 in /  0 mm 462 W/m2
12:45 41.7 °F /  5.4 °C 30.0 °F /  -1.1 °C 30.28 in /  1025.3 hPa ESE 10.0 mph /  16.1 km/h 15.0 mph /  24.1 km/h 63 % 0.00 in /  0 mm 483 W/m2
12:50 42.1 °F /  5.6 °C 30.0 °F /  -1.1 °C 30.27 in /  1024.9 hPa ESE 7.0 mph /  11.3 km/h 12.0 mph /  19.3 km/h 62 % 0.00 in /  0 mm 499 W/m2
12:55 42.4 °F /  5.8 °C 30.3 °F /  -0.9 °C 30.28 in /  1025.3 hPa East 8.0 mph /  12.9 km/h 14.0 mph /  22.5 km/h 62 % 0.00 in /  0 mm 503 W/m2
13:00 42.4 °F /  5.8 °C 29.5 °F /  -1.4 °C 30.28 in /  1025.3 hPa ESE 11.0 mph /  17.7 km/h 16.0 mph /  25.7 km/h 60 % 0.00 in /  0 mm 503 W/m2
13:05 42.4 °F /  5.8 °C 28.7 °F /  -1.8 °C 30.28 in /  1025.3 hPa ESE 10.0 mph /  16.1 km/h 18.0 mph /  29 km/h 58 % 0.00 in /  0 mm 506 W/m2
13:10 42.6 °F /  5.9 °C 28.9 °F /  -1.7 °C 30.27 in /  1024.9 hPa ESE 11.0 mph /  17.7 km/h 19.0 mph /  30.6 km/h 58 % 0.00 in /  0 mm 522 W/m2
13:20 43.2 °F /  6.2 °C 27.2 °F /  -2.7 °C 30.27 in /  1024.9 hPa ESE 9.0 mph /  14.5 km/h 15.0 mph /  24.1 km/h 53 % 0.00 in /  0 mm 503 W/m2
13:25 43.5 °F /  6.4 °C 27.0 °F /  -2.8 °C 30.27 in /  1024.9 hPa SE 8.0 mph /  12.9 km/h 13.0 mph /  20.9 km/h 52 % 0.00 in /  0 mm 475 W/m2
13:30 43.9 °F /  6.6 °C 26.4 °F /  -3.1 °C 30.27 in /  1024.9 hPa East 10.0 mph /  16.1 km/h 16.0 mph /  25.7 km/h 50 % 0.00 in /  0 mm 483 W/m2
13:35 43.9 °F /  6.6 °C 26.4 °F /  -3.1 °C 30.27 in /  1024.9 hPa ESE 10.0 mph /  16.1 km/h 15.0 mph /  24.1 km/h 50 % 0.00 in /  0 mm 459 W/m2
13:40 43.9 °F /  6.6 °C 25.9 °F /  -3.4 °C 30.27 in /  1024.9 hPa ESE 12.0 mph /  19.3 km/h 23.0 mph /  37 km/h 49 % 0.00 in /  0 mm 320 W/m2
13:45 43.5 °F /  6.4 °C 25.1 °F /  -3.8 °C 30.27 in /  1024.9 hPa SE 12.0 mph /  19.3 km/h 19.0 mph /  30.6 km/h 48 % 0.00 in /  0 mm 373 W/m2
13:50 43.3 °F /  6.3 °C 25.4 °F /  -3.7 °C 30.27 in /  1024.9 hPa SE 10.0 mph /  16.1 km/h 19.0 mph /  30.6 km/h 49 % 0.00 in /  0 mm 367 W/m2
13:55 43.3 °F /  6.3 °C 25.4 °F /  -3.7 °C 30.27 in /  1024.9 hPa ESE 9.0 mph /  14.5 km/h 15.0 mph /  24.1 km/h 49 % 0.00 in /  0 mm 385 W/m2
14:00 43.3 °F /  6.3 °C 25.4 °F /  -3.7 °C 30.27 in /  1024.9 hPa ESE 10.0 mph /  16.1 km/h 18.0 mph /  29 km/h 49 % 0.00 in /  0 mm 410 W/m2
14:05 43.5 °F /  6.4 °C 26.1 °F /  -3.3 °C 30.27 in /  1024.9 hPa ESE 10.0 mph /  16.1 km/h 16.0 mph /  25.7 km/h 50 % 0.00 in /  0 mm 436 W/m2
14:10 43.9 °F /  6.6 °C 26.4 °F /  -3.1 °C 30.27 in /  1024.9 hPa ESE 11.0 mph /  17.7 km/h 16.0 mph /  25.7 km/h 50 % 0.00 in /  0 mm 429 W/m2
14:15 44.1 °F /  6.7 °C 26.1 °F /  -3.3 °C 30.27 in /  1024.9 hPa ESE 10.0 mph /  16.1 km/h 14.0 mph /  22.5 km/h 49 % 0.00 in /  0 mm 387 W/m2
14:20 44.2 °F /  6.8 °C 26.3 °F /  -3.2 °C 30.27 in /  1024.9 hPa ESE 9.0 mph /  14.5 km/h 15.0 mph /  24.1 km/h 49 % 0.00 in /  0 mm 408 W/m2
14:25 44.2 °F /  6.8 °C 24.7 °F /  -4.1 °C 30.27 in /  1024.9 hPa ESE 12.0 mph /  19.3 km/h 25.0 mph /  40.2 km/h 46 % 0.00 in /  0 mm 367 W/m2
14:30 44.1 °F /  6.7 °C 24.6 °F /  -4.1 °C 30.27 in /  1024.9 hPa ESE 8.0 mph /  12.9 km/h 15.0 mph /  24.1 km/h 46 % 0.00 in /  0 mm 403 W/m2
14:35 44.2 °F /  6.8 °C 25.3 °F /  -3.7 °C 30.27 in /  1024.9 hPa SE 11.0 mph /  17.7 km/h 16.0 mph /  25.7 km/h 47 % 0.00 in /  0 mm 396 W/m2
14:40 44.6 °F /  7 °C 26.1 °F /  -3.3 °C 30.27 in /  1024.9 hPa ESE 7.0 mph /  11.3 km/h 11.0 mph /  17.7 km/h 48 % 0.00 in /  0 mm 366 W/m2
14:45 44.6 °F /  7 °C 26.1 °F /  -3.3 °C 30.27 in /  1024.9 hPa ESE 10.0 mph /  16.1 km/h 16.0 mph /  25.7 km/h 48 % 0.00 in /  0 mm 385 W/m2
14:50 44.2 °F /  6.8 °C 25.3 °F /  -3.7 °C 30.27 in /  1024.9 hPa ESE 11.0 mph /  17.7 km/h 18.0 mph /  29 km/h 47 % 0.00 in /  0 mm 355 W/m2
14:55 44.2 °F /  6.8 °C 25.3 °F /  -3.7 °C 30.27 in /  1024.9 hPa ESE 11.0 mph /  17.7 km/h 18.0 mph /  29 km/h 47 % 0.00 in /  0 mm 355 W/m2
15:00 44.2 °F /  6.8 °C 26.3 °F /  -3.2 °C 30.27 in /  1024.9 hPa ESE 10.0 mph /  16.1 km/h 16.0 mph /  25.7 km/h 49 % 0.00 in /  0 mm 329 W/m2
15:05 44.4 °F /  6.9 °C 27.4 °F /  -2.6 °C 30.27 in /  1024.9 hPa ESE 8.0 mph /  12.9 km/h 16.0 mph /  25.7 km/h 51 % 0.00 in /  0 mm 313 W/m2
15:10 44.2 °F /  6.8 °C 26.3 °F /  -3.2 °C 30.27 in /  1024.9 hPa ESE 13.0 mph /  20.9 km/h 20.0 mph /  32.2 km/h 49 % 0.00 in /  0 mm 322 W/m2
15:16 44.1 °F /  6.7 °C 26.6 °F /  -3 °C 30.27 in /  1024.9 hPa ESE 12.0 mph /  19.3 km/h 18.0 mph /  29 km/h 50 % 0.00 in /  0 mm 308 W/m2
15:21 43.9 °F /  6.6 °C 27.4 °F /  -2.6 °C 30.27 in /  1024.9 hPa ESE 9.0 mph /  14.5 km/h 13.0 mph /  20.9 km/h 52 % 0.00 in /  0 mm 295 W/m2
15:26 43.9 °F /  6.6 °C 26.9 °F /  -2.8 °C 30.27 in /  1024.9 hPa ESE 11.0 mph /  17.7 km/h 20.0 mph /  32.2 km/h 51 % 0.00 in /  0 mm 283 W/m2
15:31 43.7 °F /  6.5 °C 26.7 °F /  -2.9 °C 30.27 in /  1024.9 hPa ESE 9.0 mph /  14.5 km/h 15.0 mph /  24.1 km/h 51 % 0.00 in /  0 mm 272 W/m2
15:36 43.5 °F /  6.4 °C 28.0 °F /  -2.2 °C 30.27 in /  1024.9 hPa ESE 11.0 mph /  17.7 km/h 15.0 mph /  24.1 km/h 54 % 0.00 in /  0 mm 250 W/m2
15:41 43.3 °F /  6.3 °C 28.2 °F /  -2.1 °C 30.27 in /  1024.9 hPa ESE 10.0 mph /  16.1 km/h 16.0 mph /  25.7 km/h 55 % 0.00 in /  0 mm 230 W/m2
15:46 43.2 °F /  6.2 °C 29.4 °F /  -1.4 °C 30.27 in /  1024.9 hPa East 9.0 mph /  14.5 km/h 15.0 mph /  24.1 km/h 58 % 0.00 in /  0 mm 216 W/m2
15:51 42.8 °F /  6 °C 29.5 °F /  -1.4 °C 30.27 in /  1024.9 hPa East 10.0 mph /  16.1 km/h 14.0 mph /  22.5 km/h 59 % 0.00 in /  0 mm 207 W/m2
15:56 42.6 °F /  5.9 °C 28.9 °F /  -1.7 °C 30.27 in /  1024.9 hPa ESE 9.0 mph /  14.5 km/h 16.0 mph /  25.7 km/h 58 % 0.00 in /  0 mm 185 W/m2
16:01 42.4 °F /  5.8 °C 29.9 °F /  -1.2 °C 30.27 in /  1024.9 hPa East 7.0 mph /  11.3 km/h 12.0 mph /  19.3 km/h 61 % 0.00 in /  0 mm 74 W/m2
16:06 42.4 °F /  5.8 °C 30.3 °F /  -0.9 °C 30.27 in /  1024.9 hPa ESE 8.0 mph /  12.9 km/h 16.0 mph /  25.7 km/h 62 % 0.00 in /  0 mm 63 W/m2
16:11 42.1 °F /  5.6 °C 30.0 °F /  -1.1 °C 30.28 in /  1025.3 hPa ESE 10.0 mph /  16.1 km/h 20.0 mph /  32.2 km/h 62 % 0.00 in /  0 mm 58 W/m2
16:16 41.7 °F /  5.4 °C 30.0 °F /  -1.1 °C 30.28 in /  1025.3 hPa East 8.0 mph /  12.9 km/h 13.0 mph /  20.9 km/h 63 % 0.00 in /  0 mm 54 W/m2
16:21 41.7 °F /  5.4 °C 30.0 °F /  -1.1 °C 30.28 in /  1025.3 hPa ESE 10.0 mph /  16.1 km/h 15.0 mph /  24.1 km/h 63 % 0.00 in /  0 mm 51 W/m2
16:26 41.5 °F /  5.3 °C 29.9 °F /  -1.2 °C 30.28 in /  1025.3 hPa ESE 10.0 mph /  16.1 km/h 16.0 mph /  25.7 km/h 63 % 0.00 in /  0 mm 47 W/m2
16:31 41.2 °F /  5.1 °C 29.9 °F /  -1.2 °C 30.28 in /  1025.3 hPa ESE 12.0 mph /  19.3 km/h 16.0 mph /  25.7 km/h 64 % 0.00 in /  0 mm 44 W/m2
16:36 41.0 °F /  5 °C 30.1 °F /  -1.1 °C 30.28 in /  1025.3 hPa East 7.0 mph /  11.3 km/h 11.0 mph /  17.7 km/h 65 % 0.00 in /  0 mm 40 W/m2
16:41 40.8 °F /  4.9 °C 30.7 °F /  -0.7 °C 30.28 in /  1025.3 hPa East 8.0 mph /  12.9 km/h 12.0 mph /  19.3 km/h 67 % 0.00 in /  0 mm 39 W/m2
16:46 40.6 °F /  4.8 °C 30.9 °F /  -0.6 °C 30.28 in /  1025.3 hPa East 8.0 mph /  12.9 km/h 13.0 mph /  20.9 km/h 68 % 0.00 in /  0 mm 35 W/m2
16:51 40.3 °F /  4.6 °C 30.9 °F /  -0.6 °C 30.28 in /  1025.3 hPa East 7.0 mph /  11.3 km/h 11.0 mph /  17.7 km/h 69 % 0.00 in /  0 mm 33 W/m2
16:56 39.9 °F /  4.4 °C 30.9 °F /  -0.6 °C 30.28 in /  1025.3 hPa East 8.0 mph /  12.9 km/h 16.0 mph /  25.7 km/h 70 % 0.00 in /  0 mm 32 W/m2
17:01 39.7 °F /  4.3 °C 31.1 °F /  -0.5 °C 30.29 in /  1025.6 hPa East 7.0 mph /  11.3 km/h 13.0 mph /  20.9 km/h 71 % 0.00 in /  0 mm 28 W/m2
17:06 39.4 °F /  4.1 °C 31.1 °F /  -0.5 °C 30.29 in /  1025.6 hPa ESE 7.0 mph /  11.3 km/h 12.0 mph /  19.3 km/h 72 % 0.00 in /  0 mm 23 W/m2
17:11 39.2 °F /  4 °C 30.9 °F /  -0.6 °C 30.30 in /  1026 hPa East 8.0 mph /  12.9 km/h 14.0 mph /  22.5 km/h 72 % 0.00 in /  0 mm 21 W/m2
17:16 38.8 °F /  3.8 °C 30.6 °F /  -0.8 °C 30.30 in /  1026 hPa East 8.0 mph /  12.9 km/h 14.0 mph /  22.5 km/h 72 % 0.00 in /  0 mm 16 W/m2
17:21 38.7 °F /  3.7 °C 30.7 °F /  -0.7 °C 30.30 in /  1026 hPa East 7.0 mph /  11.3 km/h 11.0 mph /  17.7 km/h 73 % 0.00 in /  0 mm 14 W/m2
17:26 38.5 °F /  3.6 °C 30.6 °F /  -0.8 °C 30.30 in /  1026 hPa East 5.0 mph /  8 km/h 9.0 mph /  14.5 km/h 73 % 0.00 in /  0 mm 11 W/m2
17:31 38.1 °F /  3.4 °C 30.2 °F /  -1 °C 30.30 in /  1026 hPa ESE 6.0 mph /  9.7 km/h 9.0 mph /  14.5 km/h 73 % 0.00 in /  0 mm 9 W/m2
17:36 37.9 °F /  3.3 °C 30.4 °F /  -0.9 °C 30.31 in /  1026.3 hPa East 8.0 mph /  12.9 km/h 14.0 mph /  22.5 km/h 74 % 0.00 in /  0 mm 7 W/m2
17:41 37.9 °F /  3.3 °C 30.4 °F /  -0.9 °C 30.31 in /  1026.3 hPa East 7.0 mph /  11.3 km/h 13.0 mph /  20.9 km/h 74 % 0.00 in /  0 mm 5 W/m2
17:46 37.8 °F /  3.2 °C 30.5 °F /  -0.8 °C 30.31 in /  1026.3 hPa East 6.0 mph /  9.7 km/h 12.0 mph /  19.3 km/h 75 % 0.00 in /  0 mm 0 W/m2
17:51 37.6 °F /  3.1 °C 30.7 °F /  -0.7 °C 30.31 in /  1026.3 hPa East 5.0 mph /  8 km/h 10.0 mph /  16.1 km/h 76 % 0.00 in /  0 mm 0 W/m2
17:56 37.4 °F /  3 °C 30.5 °F /  -0.8 °C 30.31 in /  1026.3 hPa East 7.0 mph /  11.3 km/h 12.0 mph /  19.3 km/h 76 % 0.00 in /  0 mm 0 W/m2
18:01 37.2 °F /  2.9 °C 30.7 °F /  -0.7 °C 30.31 in /  1026.3 hPa East 5.0 mph /  8 km/h 10.0 mph /  16.1 km/h 77 % 0.00 in /  0 mm 0 W/m2
18:06 37.0 °F /  2.8 °C 30.8 °F /  -0.7 °C 30.31 in /  1026.3 hPa East 7.0 mph /  11.3 km/h 11.0 mph /  17.7 km/h 78 % 0.00 in /  0 mm 0 W/m2
18:11 36.9 °F /  2.7 °C 30.6 °F /  -0.8 °C 30.31 in /  1026.3 hPa East 7.0 mph /  11.3 km/h 12.0 mph /  19.3 km/h 78 % 0.00 in /  0 mm 0 W/m2
18:16 36.7 °F /  2.6 °C 30.8 °F /  -0.7 °C 30.32 in /  1026.6 hPa East 5.0 mph /  8 km/h 11.0 mph /  17.7 km/h 79 % 0.00 in /  0 mm 0 W/m2
18:21 36.5 °F /  2.5 °C 30.9 °F /  -0.6 °C 30.32 in /  1026.6 hPa East 6.0 mph /  9.7 km/h 11.0 mph /  17.7 km/h 80 % 0.00 in /  0 mm 0 W/m2
18:26 36.3 °F /  2.4 °C 30.7 °F /  -0.7 °C 30.32 in /  1026.6 hPa East 5.0 mph /  8 km/h 11.0 mph /  17.7 km/h 80 % 0.00 in /  0 mm 0 W/m2
18:31 36.1 °F /  2.3 °C 30.6 °F /  -0.8 °C 30.32 in /  1026.6 hPa East 6.0 mph /  9.7 km/h 10.0 mph /  16.1 km/h 80 % 0.00 in /  0 mm 0 W/m2
18:36 36.0 °F /  2.2 °C 30.7 °F /  -0.7 °C 30.32 in /  1026.6 hPa East 6.0 mph /  9.7 km/h 9.0 mph /  14.5 km/h 81 % 0.00 in /  0 mm 0 W/m2
18:41 36.0 °F /  2.2 °C 31.0 °F /  -0.6 °C 30.32 in /  1026.6 hPa East 6.0 mph /  9.7 km/h 11.0 mph /  17.7 km/h 82 % 0.00 in /  0 mm 0 W/m2
18:46 35.8 °F /  2.1 °C 30.8 °F /  -0.7 °C 30.32 in /  1026.6 hPa East 6.0 mph /  9.7 km/h 11.0 mph /  17.7 km/h 82 % 0.00 in /  0 mm 0 W/m2
18:51 35.8 °F /  2.1 °C 30.8 °F /  -0.7 °C 30.32 in /  1026.6 hPa ESE 6.0 mph /  9.7 km/h 11.0 mph /  17.7 km/h 82 % 0.00 in /  0 mm 0 W/m2
18:56 35.4 °F /  1.9 °C 30.8 °F /  -0.7 °C 30.32 in /  1026.6 hPa East 5.0 mph /  8 km/h 9.0 mph /  14.5 km/h 83 % 0.00 in /  0 mm 0 W/m2
19:01 35.4 °F /  1.9 °C 30.8 °F /  -0.7 °C 30.32 in /  1026.6 hPa East 5.0 mph /  8 km/h 9.0 mph /  14.5 km/h 83 % 0.00 in /  0 mm 0 W/m2
19:06 35.2 °F /  1.8 °C 30.9 °F /  -0.6 °C 30.33 in /  1027 hPa East 7.0 mph /  11.3 km/h 9.0 mph /  14.5 km/h 84 % 0.00 in /  0 mm 0 W/m2
19:11 35.2 °F /  1.8 °C 30.9 °F /  -0.6 °C 30.33 in /  1027 hPa ESE 5.0 mph /  8 km/h 9.0 mph /  14.5 km/h 84 % 0.00 in /  0 mm 0 W/m2
19:16 35.1 °F /  1.7 °C 31.0 °F /  -0.6 °C 30.33 in /  1027 hPa East 5.0 mph /  8 km/h 8.0 mph /  12.9 km/h 85 % 0.00 in /  0 mm 0 W/m2
19:21 34.9 °F /  1.6 °C 30.8 °F /  -0.7 °C 30.33 in /  1027 hPa East 5.0 mph /  8 km/h 9.0 mph /  14.5 km/h 85 % 0.00 in /  0 mm 0 W/m2
19:26 34.9 °F /  1.6 °C 30.8 °F /  -0.7 °C 30.33 in /  1027 hPa East 4.0 mph /  6.4 km/h 8.0 mph /  12.9 km/h 85 % 0.00 in /  0 mm 0 W/m2
19:31 34.7 °F /  1.5 °C 30.9 °F /  -0.6 °C 30.33 in /  1027 hPa East 6.0 mph /  9.7 km/h 9.0 mph /  14.5 km/h 86 % 0.00 in /  0 mm 0 W/m2
19:36 34.7 °F /  1.5 °C 30.9 °F /  -0.6 °C 30.34 in /  1027.3 hPa ESE 4.0 mph /  6.4 km/h 7.0 mph /  11.3 km/h 86 % 0.00 in /  0 mm 0 W/m2
19:41 34.5 °F /  1.4 °C 30.8 °F /  -0.7 °C 30.33 in /  1027 hPa East 5.0 mph /  8 km/h 9.0 mph /  14.5 km/h 86 % 0.00 in /  0 mm 0 W/m2
19:46 34.5 °F /  1.4 °C 31.0 °F /  -0.6 °C 30.33 in /  1027 hPa East 5.0 mph /  8 km/h 10.0 mph /  16.1 km/h 87 % 0.00 in /  0 mm 0 W/m2
19:51 34.5 °F /  1.4 °C 31.3 °F /  -0.4 °C 30.34 in /  1027.3 hPa East 4.0 mph /  6.4 km/h 9.0 mph /  14.5 km/h 88 % 0.00 in /  0 mm 0 W/m2
19:56 34.5 °F /  1.4 °C 31.3 °F /  -0.4 °C 30.34 in /  1027.3 hPa East 6.0 mph /  9.7 km/h 10.0 mph /  16.1 km/h 88 % 0.00 in /  0 mm 0 W/m2
20:01 34.7 °F /  1.5 °C 31.5 °F /  -0.3 °C 30.34 in /  1027.3 hPa East 6.0 mph /  9.7 km/h 11.0 mph /  17.7 km/h 88 % 0.00 in /  0 mm 0 W/m2
20:06 34.7 °F /  1.5 °C 31.5 °F /  -0.3 °C 30.34 in /  1027.3 hPa East 5.0 mph /  8 km/h 11.0 mph /  17.7 km/h 88 % 0.00 in /  0 mm 0 W/m2
20:11 34.5 °F /  1.4 °C 31.3 °F /  -0.4 °C 30.34 in /  1027.3 hPa East 6.0 mph /  9.7 km/h 10.0 mph /  16.1 km/h 88 % 0.00 in /  0 mm 0 W/m2
20:16 34.7 °F /  1.5 °C 31.8 °F /  -0.1 °C 30.34 in /  1027.3 hPa East 4.0 mph /  6.4 km/h 9.0 mph /  14.5 km/h 89 % 0.00 in /  0 mm 0 W/m2
20:21 34.7 °F /  1.5 °C 31.8 °F /  -0.1 °C 30.35 in /  1027.7 hPa East 6.0 mph /  9.7 km/h 10.0 mph /  16.1 km/h 89 % 0.00 in /  0 mm 0 W/m2
20:26 34.7 °F /  1.5 °C 31.8 °F /  -0.1 °C 30.35 in /  1027.7 hPa ESE 5.0 mph /  8 km/h 11.0 mph /  17.7 km/h 89 % 0.00 in /  0 mm 0 W/m2
20:32 34.9 °F /  1.6 °C 32.0 °F /  0 °C 30.35 in /  1027.7 hPa ESE 6.0 mph /  9.7 km/h 10.0 mph /  16.1 km/h 89 % 0.00 in /  0 mm 0 W/m2
20:37 34.9 °F /  1.6 °C 32.0 °F /  0 °C 30.35 in /  1027.7 hPa East 6.0 mph /  9.7 km/h 10.0 mph /  16.1 km/h 89 % 0.00 in /  0 mm 0 W/m2
20:42 34.9 °F /  1.6 °C 32.0 °F /  0 °C 30.35 in /  1027.7 hPa ESE 6.0 mph /  9.7 km/h 9.0 mph /  14.5 km/h 89 % 0.00 in /  0 mm 0 W/m2
20:47 34.9 °F /  1.6 °C 32.0 °F /  0 °C 30.35 in /  1027.7 hPa ESE 6.0 mph /  9.7 km/h 9.0 mph /  14.5 km/h 89 % 0.00 in /  0 mm 0 W/m2
20:52 35.1 °F /  1.7 °C 32.1 °F /  0.1 °C 30.35 in /  1027.7 hPa ESE 7.0 mph /  11.3 km/h 11.0 mph /  17.7 km/h 89 % 0.00 in /  0 mm 0 W/m2
20:57 35.1 °F /  1.7 °C 32.1 °F /  0.1 °C 30.35 in /  1027.7 hPa ESE 7.0 mph /  11.3 km/h 11.0 mph /  17.7 km/h 89 % 0.00 in /  0 mm 0 W/m2
21:02 35.1 °F /  1.7 °C 32.1 °F /  0.1 °C 30.36 in /  1028 hPa ESE 8.0 mph /  12.9 km/h 11.0 mph /  17.7 km/h 89 % 0.00 in /  0 mm 0 W/m2
21:06 35.1 °F /  1.7 °C 32.1 °F /  0.1 °C 30.35 in /  1027.7 hPa ESE 6.0 mph /  9.7 km/h 9.0 mph /  14.5 km/h 89 % 0.00 in /  0 mm 0 W/m2
21:12 35.2 °F /  1.8 °C 32.3 °F /  0.2 °C 30.35 in /  1027.7 hPa ESE 8.0 mph /  12.9 km/h 11.0 mph /  17.7 km/h 89 % 0.00 in /  0 mm 0 W/m2
21:17 35.2 °F /  1.8 °C 32.3 °F /  0.2 °C 30.35 in /  1027.7 hPa ESE 6.0 mph /  9.7 km/h 10.0 mph /  16.1 km/h 89 % 0.00 in /  0 mm 0 W/m2
21:22 35.2 °F /  1.8 °C 32.3 °F /  0.2 °C 30.36 in /  1028 hPa ESE 7.0 mph /  11.3 km/h 12.0 mph /  19.3 km/h 89 % 0.00 in /  0 mm 0 W/m2
21:27 35.2 °F /  1.8 °C 32.3 °F /  0.2 °C 30.36 in /  1028 hPa ESE 7.0 mph /  11.3 km/h 13.0 mph /  20.9 km/h 89 % 0.00 in /  0 mm 0 W/m2
21:32 35.2 °F /  1.8 °C 32.3 °F /  0.2 °C 30.36 in /  1028 hPa ESE 7.0 mph /  11.3 km/h 11.0 mph /  17.7 km/h 89 % 0.00 in /  0 mm 0 W/m2
21:37 35.2 °F /  1.8 °C 32.0 °F /  0 °C 30.36 in /  1028 hPa ESE 7.0 mph /  11.3 km/h 10.0 mph /  16.1 km/h 88 % 0.00 in /  0 mm 0 W/m2
21:42 35.2 °F /  1.8 °C 32.0 °F /  0 °C 30.36 in /  1028 hPa ESE 9.0 mph /  14.5 km/h 13.0 mph /  20.9 km/h 88 % 0.00 in /  0 mm 0 W/m2
21:47 35.4 °F /  1.9 °C 32.2 °F /  0.1 °C 30.36 in /  1028 hPa ESE 9.0 mph /  14.5 km/h 14.0 mph /  22.5 km/h 88 % 0.00 in /  0 mm 0 W/m2
21:52 35.4 °F /  1.9 °C 32.2 °F /  0.1 °C 30.36 in /  1028 hPa ESE 8.0 mph /  12.9 km/h 12.0 mph /  19.3 km/h 88 % 0.00 in /  0 mm 0 W/m2
21:53 35.4 °F /  1.9 °C 32.2 °F /  0.1 °C 30.36 in /  1028 hPa ESE 7.0 mph /  11.3 km/h 12.0 mph /  19.3 km/h 88 % 0.00 in /  0 mm 0 W/m2
21:58 35.4 °F /  1.9 °C 32.2 °F /  0.1 °C 30.36 in /  1028 hPa ESE 7.0 mph /  11.3 km/h 14.0 mph /  22.5 km/h 88 % 0.00 in /  0 mm 0 W/m2
22:03 35.4 °F /  1.9 °C 32.2 °F /  0.1 °C 30.37 in /  1028.3 hPa ESE 8.0 mph /  12.9 km/h 12.0 mph /  19.3 km/h 88 % 0.00 in /  0 mm 0 W/m2
Delerius-Weather
Compliments of Weather Underground - 2.25 mb

Data updates at regular intervals.